createdAt,value
2022-12-25T00:00:27.941Z,101248.19
2022-12-25T00:03:29.750Z,101252.66
2022-12-25T00:06:31.370Z,101244.75
2022-12-25T00:09:33.130Z,101250.00
2022-12-25T00:12:34.664Z,101249.06
2022-12-25T00:15:39.902Z,101246.41
2022-12-25T00:18:41.482Z,101259.53
2022-12-25T00:21:43.018Z,101262.97
2022-12-25T00:24:44.664Z,101251.53
2022-12-25T00:27:46.182Z,101255.84
2022-12-25T00:30:48.098Z,101247.06
2022-12-25T00:33:51.593Z,101251.34
2022-12-25T00:36:53.122Z,101247.69
2022-12-25T00:39:54.683Z,101241.41
2022-12-25T00:42:56.234Z,101252.00
2022-12-25T00:46:01.046Z,101256.31
2022-12-25T00:49:03.552Z,101258.78
2022-12-25T00:52:05.237Z,101259.69
2022-12-25T00:55:07.279Z,101260.59
2022-12-25T00:58:08.806Z,101266.03
2022-12-25T01:01:13.854Z,101259.09
2022-12-25T01:04:15.538Z,101260.22
2022-12-25T01:07:17.537Z,101256.03
2022-12-25T01:10:24.725Z,101257.09
2022-12-25T01:13:26.703Z,101252.97
2022-12-25T01:16:29.219Z,101256.75
2022-12-25T01:19:30.864Z,101274.53
2022-12-25T01:22:32.499Z,101273.78
2022-12-25T01:25:34.133Z,101279.09
2022-12-25T01:28:36.272Z,101274.78
2022-12-25T01:31:37.838Z,101278.38
2022-12-25T01:34:39.488Z,101278.53
2022-12-25T01:37:41.089Z,101284.75
2022-12-25T01:40:42.823Z,101286.53
2022-12-25T01:44:14.380Z,101283.88
2022-12-25T01:47:18.142Z,101275.19
2022-12-25T01:50:20.850Z,101271.69
2022-12-25T01:53:23.189Z,101276.16
2022-12-25T01:56:27.055Z,101286.84
2022-12-25T01:59:29.675Z,101287.84
2022-12-25T02:02:31.863Z,101286.25
2022-12-25T02:05:34.526Z,101275.78
2022-12-25T02:08:36.257Z,101286.50
2022-12-25T02:11:56.627Z,101289.22
2022-12-25T02:15:06.571Z,101301.63
2022-12-25T02:18:42.403Z,101300.78
2022-12-25T02:22:21.896Z,101289.38
2022-12-25T02:25:35.178Z,101286.69
2022-12-25T02:29:03.166Z,101296.25
2022-12-25T02:32:41.874Z,101297.06
2022-12-25T02:35:47.595Z,101296.22
2022-12-25T02:39:27.769Z,101298.88
2022-12-25T02:42:57.629Z,101293.69
2022-12-25T02:46:21.799Z,101293.72
2022-12-25T02:49:43.927Z,101292.09
2022-12-25T02:53:05.863Z,101293.84
2022-12-25T02:56:26.638Z,101292.03
2022-12-25T02:59:48.945Z,101288.50
2022-12-25T03:03:11.548Z,101286.75
2022-12-25T03:06:32.816Z,101283.16
2022-12-25T03:09:59.995Z,101283.06
2022-12-25T03:13:22.386Z,101282.91
2022-12-25T03:16:42.504Z,101281.13
2022-12-25T03:20:02.732Z,101271.38
2022-12-25T03:23:23.049Z,101272.19
2022-12-25T03:26:45.959Z,101271.28
2022-12-25T03:30:05.862Z,101279.13
2022-12-25T03:33:43.376Z,101268.50
2022-12-25T03:37:01.702Z,101266.56
2022-12-25T03:40:43.755Z,101254.97
2022-12-25T03:44:08.602Z,101254.88
2022-12-25T03:47:37.470Z,101246.03
2022-12-25T03:50:57.292Z,101236.31
2022-12-25T03:54:22.825Z,101237.16
2022-12-25T03:57:43.278Z,101242.50
2022-12-25T04:01:03.684Z,101236.34
2022-12-25T04:04:23.961Z,101224.94
2022-12-25T04:07:44.030Z,101223.22
2022-12-25T04:11:04.129Z,101205.69
2022-12-25T04:14:24.212Z,101214.63
2022-12-25T04:17:44.263Z,101208.56
2022-12-25T04:21:04.658Z,101209.53
2022-12-25T04:24:25.688Z,101214.03
2022-12-25T04:27:45.689Z,101205.41
2022-12-25T04:31:06.428Z,101203.72
2022-12-25T04:34:26.651Z,101198.44
2022-12-25T04:37:28.216Z,101202.78
2022-12-25T04:40:29.754Z,101179.13
2022-12-25T04:43:31.410Z,101177.44
2022-12-25T04:46:33.026Z,101181.09
2022-12-25T04:49:34.621Z,101169.81
2022-12-25T04:52:37.746Z,101159.44
2022-12-25T04:55:39.303Z,101172.72
2022-12-25T04:58:41.876Z,101167.53
2022-12-25T05:01:43.546Z,101167.59
2022-12-25T05:04:46.349Z,101166.81
2022-12-25T05:07:47.872Z,101158.06
2022-12-25T05:10:49.870Z,101162.50
2022-12-25T05:13:51.464Z,101156.41
2022-12-25T05:16:53.090Z,101153.75
2022-12-25T05:19:54.657Z,101153.75
2022-12-25T05:22:56.188Z,101152.84
2022-12-25T05:25:57.953Z,101159.00
2022-12-25T05:29:00.115Z,101154.53
2022-12-25T05:32:02.107Z,101160.66
2022-12-25T05:35:03.921Z,101170.28
2022-12-25T05:38:06.981Z,101166.75
2022-12-25T05:41:08.543Z,101175.44
2022-12-25T05:44:10.333Z,101174.41
2022-12-25T05:47:11.865Z,101180.69
2022-12-25T05:50:13.450Z,101170.84
2022-12-25T05:53:15.732Z,101170.59
2022-12-25T05:56:17.581Z,101178.41
2022-12-25T05:59:19.136Z,101182.63
2022-12-25T06:02:20.850Z,101174.63
2022-12-25T06:05:22.488Z,101175.38
2022-12-25T06:08:24.006Z,101185.78
2022-12-25T06:11:25.663Z,101176.91
2022-12-25T06:14:27.261Z,101175.06
2022-12-25T06:17:28.862Z,101177.53
2022-12-25T06:20:30.375Z,101177.50
2022-12-25T06:23:31.989Z,101175.66
2022-12-25T06:26:33.629Z,101170.31
2022-12-25T06:29:35.274Z,101179.03
2022-12-25T06:32:36.956Z,101172.78
2022-12-25T06:35:40.064Z,101172.66
2022-12-25T06:38:42.282Z,101168.94
2022-12-25T06:41:43.898Z,101176.75
2022-12-25T06:44:45.636Z,101174.91
2022-12-25T06:47:47.265Z,101170.34
2022-12-25T06:50:48.830Z,101168.47
2022-12-25T06:53:51.872Z,101170.94
2022-12-25T06:56:53.638Z,101175.16
2022-12-25T06:59:55.740Z,101176.81
2022-12-25T07:02:57.498Z,101165.28
2022-12-25T07:05:59.174Z,101167.09
2022-12-25T07:09:00.797Z,101165.28
2022-12-25T07:12:07.332Z,101167.88
2022-12-25T07:15:09.525Z,101173.03
2022-12-25T07:18:11.110Z,101177.34
2022-12-25T07:21:15.829Z,101166.63
2022-12-25T07:24:19.583Z,101174.25
2022-12-25T07:27:21.125Z,101167.09
2022-12-25T07:30:22.721Z,101161.69
2022-12-25T07:33:24.248Z,101161.44
2022-12-25T07:36:25.822Z,101155.03
2022-12-25T07:39:27.421Z,101157.63
2022-12-25T07:42:28.995Z,101161.09
2022-12-25T07:45:30.565Z,101155.78
2022-12-25T07:48:32.345Z,101141.72
2022-12-25T07:51:33.956Z,101145.22
2022-12-25T07:54:35.514Z,101154.84
2022-12-25T07:57:37.078Z,101141.66
2022-12-25T08:00:38.667Z,101145.16
2022-12-25T08:03:40.497Z,101145.16
2022-12-25T08:06:42.198Z,101139.31
2022-12-25T08:09:43.762Z,101143.47
2022-12-25T08:12:45.538Z,101136.31
2022-12-25T08:15:47.112Z,101135.34
2022-12-25T08:18:48.950Z,101134.31
2022-12-25T08:21:50.503Z,101136.00
2022-12-25T08:24:52.038Z,101141.25
2022-12-25T08:27:53.580Z,101146.53
2022-12-25T08:30:55.227Z,101150.88
2022-12-25T08:33:59.061Z,101158.75
2022-12-25T08:37:00.605Z,101163.06
2022-12-25T08:40:02.243Z,101162.97
2022-12-25T08:43:04.506Z,101171.78
2022-12-25T08:46:06.980Z,101171.69
2022-12-25T08:49:08.537Z,101169.88
2022-12-25T08:52:10.191Z,101164.50
2022-12-25T08:55:12.118Z,101177.59
2022-12-25T08:58:14.749Z,101170.47
2022-12-25T09:01:16.755Z,101172.16
2022-12-25T09:04:18.477Z,101171.25
2022-12-25T09:07:20.008Z,101163.31
2022-12-25T09:10:21.814Z,101169.47
2022-12-25T09:13:23.475Z,101171.25
2022-12-25T09:16:25.165Z,101164.19
2022-12-25T09:19:26.722Z,101174.63
2022-12-25T09:22:28.400Z,101163.97
2022-12-25T09:25:30.233Z,101163.84
2022-12-25T09:28:32.379Z,101176.13
2022-12-25T09:31:34.165Z,101179.59
2022-12-25T09:34:35.782Z,101182.94
2022-12-25T09:37:37.318Z,101181.09
2022-12-25T09:40:38.848Z,101167.81
2022-12-25T09:43:50.004Z,101165.09
2022-12-25T09:46:56.121Z,101158.03
2022-12-25T09:50:07.870Z,101171.25
2022-12-25T09:53:16.180Z,101169.41
2022-12-25T09:56:25.639Z,101159.59
2022-12-25T09:59:27.518Z,101154.25
2022-12-25T10:03:06.838Z,101155.97
2022-12-25T10:06:17.550Z,101141.03
2022-12-25T10:09:32.185Z,101135.75
2022-12-25T10:13:31.199Z,101119.94
2022-12-25T10:16:52.949Z,101114.81
2022-12-25T10:20:00.290Z,101121.91
2022-12-25T10:23:06.100Z,101119.34
2022-12-25T10:26:34.504Z,101114.94
2022-12-25T10:29:36.244Z,101108.78
2022-12-25T10:32:37.816Z,101115.84
2022-12-25T10:35:40.139Z,101107.91
2022-12-25T10:38:41.840Z,101107.91
2022-12-25T10:42:10.932Z,101114.81
2022-12-25T10:45:12.516Z,101098.94
2022-12-25T10:48:33.300Z,101095.34
2022-12-25T10:51:37.800Z,101081.25
2022-12-25T10:54:39.400Z,101074.19
2022-12-25T10:57:46.088Z,101072.50
2022-12-25T11:01:06.849Z,101079.47
2022-12-25T11:04:35.788Z,101076.84
2022-12-25T11:07:50.956Z,101081.13
2022-12-25T11:10:59.465Z,101075.72
2022-12-25T11:14:02.701Z,101080.00
2022-12-25T11:17:09.296Z,101076.41
2022-12-25T11:20:19.382Z,101083.44
2022-12-25T11:23:23.135Z,101071.94
2022-12-25T11:26:25.299Z,101064.84
2022-12-25T11:29:45.011Z,101082.34
2022-12-25T11:32:55.495Z,101087.63
2022-12-25T11:36:00.955Z,101102.59
2022-12-25T11:39:23.715Z,101097.19
2022-12-25T11:42:41.953Z,101085.13
2022-12-25T11:45:55.600Z,101089.56
2022-12-25T11:49:05.338Z,101092.13
2022-12-25T11:52:12.876Z,101062.09
2022-12-25T11:55:21.831Z,101044.41
2022-12-25T11:58:44.502Z,101037.31
2022-12-25T12:01:57.296Z,101034.44
2022-12-25T12:05:23.590Z,101032.50
2022-12-25T12:08:25.148Z,101037.50
2022-12-25T12:11:39.568Z,101025.06
2022-12-25T12:14:45.550Z,101025.06
2022-12-25T12:17:47.213Z,101019.81
2022-12-25T12:21:27.394Z,101000.59
2022-12-25T12:24:35.842Z,100983.13
2022-12-25T12:27:40.636Z,100988.50
2022-12-25T12:30:42.348Z,100990.38
2022-12-25T12:33:58.437Z,100967.47
2022-12-25T12:37:05.148Z,100967.41
2022-12-25T12:40:21.465Z,100963.81
2022-12-25T12:43:25.950Z,100948.88
2022-12-25T12:46:38.762Z,100948.00
2022-12-25T12:49:41.052Z,100920.69
2022-12-25T12:52:42.729Z,100921.53
2022-12-25T12:55:44.329Z,100934.00
2022-12-25T12:58:50.587Z,100929.63
2022-12-25T13:02:06.646Z,100916.47
2022-12-25T13:05:42.192Z,100935.06
2022-12-25T13:09:02.204Z,100944.88
2022-12-25T13:12:12.615Z,100930.00
2022-12-25T13:15:14.924Z,100934.63
2022-12-25T13:18:16.939Z,100932.13
2022-12-25T13:21:23.203Z,100936.63
2022-12-25T13:24:27.482Z,100932.03
2022-12-25T13:27:31.166Z,100927.69
2022-12-25T13:30:32.776Z,100919.91
2022-12-25T13:33:34.886Z,100908.59
2022-12-25T13:36:40.277Z,100922.06
2022-12-25T13:39:52.307Z,100923.06
2022-12-25T13:43:00.564Z,100916.13
2022-12-25T13:46:02.173Z,100909.09
2022-12-25T13:49:14.026Z,100904.88
2022-12-25T13:52:22.231Z,100901.41
2022-12-25T13:55:29.392Z,100889.13
2022-12-25T13:58:36.886Z,100879.41
2022-12-25T14:01:43.164Z,100880.34
2022-12-25T14:04:45.231Z,100881.19
2022-12-25T14:07:52.151Z,100876.81
2022-12-25T14:10:54.741Z,100878.59
2022-12-25T14:14:04.171Z,100864.59
2022-12-25T14:17:06.046Z,100865.56
2022-12-25T14:20:21.208Z,100858.63
2022-12-25T14:23:22.839Z,100871.91
2022-12-25T14:26:28.781Z,100871.91
2022-12-25T14:29:38.352Z,100870.22
2022-12-25T14:32:44.691Z,100865.84
2022-12-25T14:35:47.999Z,100858.81
2022-12-25T14:38:58.547Z,100858.03
2022-12-25T14:42:11.332Z,100848.47
2022-12-25T14:45:26.301Z,100851.06
2022-12-25T14:48:30.556Z,100851.13
2022-12-25T14:51:34.317Z,100844.13
2022-12-25T14:54:37.019Z,100840.59
2022-12-25T14:57:40.461Z,100840.59
2022-12-25T15:00:42.503Z,100843.28
2022-12-25T15:03:44.299Z,100844.16
2022-12-25T15:07:09.503Z,100837.84
2022-12-25T15:10:57.477Z,100831.16
2022-12-25T15:13:35.183Z,100833.19
2022-12-25T15:16:42.968Z,100835.22
2022-12-25T15:19:44.651Z,100832.22
2022-12-25T15:23:17.857Z,100834.72
2022-12-25T15:26:13.138Z,100836.56
2022-12-25T15:29:14.720Z,100821.09
2022-12-25T15:32:22.326Z,100828.38
2022-12-25T15:35:23.921Z,100822.88
2022-12-25T15:38:25.466Z,100816.84
2022-12-25T15:41:52.182Z,100816.94
2022-12-25T15:44:53.741Z,100807.94
2022-12-25T15:47:55.311Z,100813.75
2022-12-25T15:50:56.838Z,100795.91
2022-12-25T15:53:59.582Z,100794.06
2022-12-25T15:57:04.675Z,100798.97
2022-12-25T16:00:08.471Z,100802.03
2022-12-25T16:03:10.255Z,100796.84
2022-12-25T16:06:13.974Z,100795.88
2022-12-25T16:09:16.963Z,100787.75
2022-12-25T16:12:19.859Z,100783.03
2022-12-25T16:15:21.785Z,100774.75
2022-12-25T16:18:24.023Z,100775.16
2022-12-25T16:21:26.277Z,100772.94
2022-12-25T16:24:28.049Z,100765.31
2022-12-25T16:27:29.885Z,100756.84
2022-12-25T16:30:31.824Z,100761.47
2022-12-25T16:33:33.402Z,100758.13
2022-12-25T16:36:36.105Z,100763.56
2022-12-25T16:39:37.904Z,100759.38
2022-12-25T16:42:39.856Z,100755.88
2022-12-25T16:45:41.632Z,100751.53
2022-12-25T16:48:43.337Z,100754.94
2022-12-25T16:51:45.205Z,100748.69
2022-12-25T16:54:47.307Z,100745.13
2022-12-25T16:57:51.188Z,100746.84
2022-12-25T17:00:52.736Z,100744.09
2022-12-25T17:03:54.846Z,100748.53
2022-12-25T17:06:56.753Z,100742.38
2022-12-25T17:09:58.676Z,100757.25
2022-12-25T17:13:00.311Z,100748.38
2022-12-25T17:16:15.234Z,100739.41
2022-12-25T17:19:20.398Z,100727.91
2022-12-25T17:22:23.618Z,100720.72
2022-12-25T17:25:25.733Z,100716.28
2022-12-25T17:28:27.395Z,100721.59
2022-12-25T17:31:29.698Z,100718.94
2022-12-25T17:34:31.414Z,100705.69
2022-12-25T17:37:33.790Z,100693.28
2022-12-25T17:40:35.393Z,100691.59
2022-12-25T17:43:37.854Z,100682.78
2022-12-25T17:46:39.472Z,100687.22
2022-12-25T17:49:41.030Z,100685.53
2022-12-25T17:52:42.895Z,100684.66
2022-12-25T17:55:44.971Z,100687.38
2022-12-25T17:58:51.992Z,100676.78
2022-12-25T18:01:54.000Z,100663.63
2022-12-25T18:04:55.738Z,100667.22
2022-12-25T18:07:57.343Z,100673.47
2022-12-25T18:11:07.514Z,100666.38
2022-12-25T18:14:13.665Z,100654.94
2022-12-25T18:17:15.201Z,100644.50
2022-12-25T18:20:16.742Z,100649.81
2022-12-25T18:23:18.346Z,100650.72
2022-12-25T18:26:21.201Z,100658.66
2022-12-25T18:29:22.751Z,100657.84
2022-12-25T18:32:28.027Z,100653.31
2022-12-25T18:35:29.972Z,100654.16
2022-12-25T18:38:31.717Z,100651.53
2022-12-25T18:41:53.475Z,100664.66
2022-12-25T18:44:55.237Z,100659.28
2022-12-25T18:47:56.770Z,100647.75
2022-12-25T18:51:04.738Z,100637.00
2022-12-25T18:54:06.352Z,100622.91
2022-12-25T18:57:07.882Z,100619.38
2022-12-25T19:00:09.955Z,100622.03
2022-12-25T19:03:11.587Z,100632.56
2022-12-25T19:06:27.944Z,100632.19
2022-12-25T19:09:29.678Z,100631.06
2022-12-25T19:12:31.258Z,100628.41
2022-12-25T19:15:33.127Z,100627.41
2022-12-25T19:18:34.674Z,100624.69
2022-12-25T19:21:36.219Z,100610.47
2022-12-25T19:24:37.778Z,100596.31
2022-12-25T19:27:39.403Z,100587.50
2022-12-25T19:30:40.950Z,100593.91
2022-12-25T19:33:42.649Z,100600.09
2022-12-25T19:36:44.182Z,100601.59
2022-12-25T19:39:46.916Z,100611.00
2022-12-25T19:42:48.512Z,100610.63
2022-12-25T19:45:50.173Z,100604.75
2022-12-25T19:48:52.547Z,100603.69
2022-12-25T19:51:54.143Z,100603.25
2022-12-25T19:54:55.694Z,100603.09
2022-12-25T19:57:59.190Z,100605.75
2022-12-25T20:01:07.340Z,100604.78
2022-12-25T20:04:10.380Z,100606.50
2022-12-25T20:07:11.922Z,100603.50
2022-12-25T20:10:13.464Z,100605.09
2022-12-25T20:13:15.550Z,100614.09
2022-12-25T20:16:17.400Z,100619.56
2022-12-25T20:19:18.982Z,100619.75
2022-12-25T20:22:20.766Z,100603.09
2022-12-25T20:25:22.333Z,100598.88
2022-12-25T20:28:23.889Z,100596.41
2022-12-25T20:31:28.768Z,100585.03
2022-12-25T20:34:30.427Z,100597.63
2022-12-25T20:37:32.536Z,100594.13
2022-12-25T20:40:47.031Z,100598.56
2022-12-25T20:43:55.982Z,100603.03
2022-12-25T20:47:01.034Z,100602.16
2022-12-25T20:50:02.925Z,100619.59
2022-12-25T20:53:04.490Z,100623.00
2022-12-25T20:56:08.334Z,100626.41
2022-12-25T20:59:11.855Z,100621.97
2022-12-25T21:02:34.468Z,100608.81
2022-12-25T21:05:36.168Z,100600.84
2022-12-25T21:08:38.096Z,100599.25
2022-12-25T21:11:39.756Z,100593.06
2022-12-25T21:14:41.325Z,100591.41
2022-12-25T21:17:42.906Z,100594.13
2022-12-25T21:20:50.439Z,100598.56
2022-12-25T21:23:52.035Z,100597.72
2022-12-25T21:26:53.646Z,100600.19
2022-12-25T21:29:55.360Z,100608.81
2022-12-25T21:33:17.210Z,100606.91
2022-12-25T21:36:31.282Z,100613.97
2022-12-25T21:39:33.007Z,100611.34
2022-12-25T21:42:34.585Z,100604.38
2022-12-25T21:45:36.283Z,100595.63
2022-12-25T21:48:38.496Z,100594.88
2022-12-25T21:51:58.932Z,100593.34
2022-12-25T21:55:00.526Z,100595.31
2022-12-25T21:58:02.785Z,100597.16
2022-12-25T22:01:04.871Z,100592.59
2022-12-25T22:04:08.293Z,100590.72
2022-12-25T22:07:19.117Z,100595.06
2022-12-25T22:10:20.696Z,100591.56
2022-12-25T22:13:40.947Z,100596.94
2022-12-25T22:17:01.598Z,100586.44
2022-12-25T22:20:04.747Z,100591.75
2022-12-25T22:23:06.373Z,100589.94
2022-12-25T22:26:07.921Z,100592.50
2022-12-25T22:29:09.561Z,100593.34
2022-12-25T22:32:12.026Z,100586.44
2022-12-25T22:35:14.250Z,100583.09
2022-12-25T22:38:15.768Z,100585.84
2022-12-25T22:41:17.340Z,100583.88
2022-12-25T22:44:18.952Z,100595.44
2022-12-25T22:47:20.649Z,100599.97
2022-12-25T22:50:22.253Z,100621.19
2022-12-25T22:53:23.828Z,100610.56
2022-12-25T22:56:25.426Z,100619.47
2022-12-25T22:59:27.917Z,100615.88
2022-12-25T23:02:29.682Z,100619.38
2022-12-25T23:05:31.378Z,100613.97
2022-12-25T23:08:32.890Z,100612.19
2022-12-25T23:11:36.632Z,100606.88
2022-12-25T23:14:40.849Z,100603.38
2022-12-25T23:18:01.289Z,100608.22
2022-12-25T23:21:21.270Z,100600.44
2022-12-25T23:24:41.570Z,100598.72
2022-12-25T23:27:45.098Z,100589.22
2022-12-25T23:30:46.689Z,100584.19
2022-12-25T23:33:48.215Z,100582.56
2022-12-25T23:36:49.867Z,100581.91
2022-12-25T23:39:51.433Z,100570.63
2022-12-25T23:42:53.003Z,100569.84
2022-12-25T23:45:54.549Z,100575.34
2022-12-25T23:48:56.072Z,100579.03
2022-12-25T23:51:57.766Z,100580.16
2022-12-25T23:54:59.301Z,100595.41
2022-12-25T23:58:00.887Z,100607.84
